Flugplatz Konstanz

EDTZ · Baden-Wurtemberg, Alemania

METAR pasados EDTZ · Flugplatz Konstanz

A continuación puedes ver los METAR de los últimos días. Selecciona un año para ver los METAR más antiguos, desde el año 2007 en adelante.

20 de julio de 2024

Hora Código Tiempo Temp. Visibilidad Cielo nuboso Viento METAR/SPECI
20:50
V
23 °C 10 km+ - 360° 360° 0 kt METAR EDNY 201850Z 00000KT CAVOK 23/18 Q1009
20:20
V
25 °C 10 km+ - 360° 360° 0 kt METAR EDNY 201820Z 00000KT CAVOK 25/17 Q1009
19:50
V
27 °C 10 km+ - Var Var 1 kt METAR EDNY 201750Z VRB01KT CAVOK 27/19 Q1009
19:20
V
29 °C 10 km+ - Var Var 1 kt METAR EDNY 201720Z VRB01KT CAVOK 29/19 Q1010
18:50
V
30 °C 10 km+ - Var Var 2 kt METAR EDNY 201650Z VRB02KT CAVOK 30/14 Q1010
18:20
V
29 °C 10 km+ - 180° 180° 4 kt METAR EDNY 201620Z 18004KT 140V200 CAVOK 29/15 Q1010
17:50
V
29 °C 10 km+ - 190° 190° 5 kt METAR EDNY 201550Z 19005KT CAVOK 29/13 Q1010
17:20
V
30 °C 10 km+ - 200° 200° 5 kt METAR EDNY 201520Z 20005KT CAVOK 30/13 Q1010
16:50
V
30 °C 10 km+ - 200° 200° 5 kt METAR EDNY 201450Z 20005KT 170V240 CAVOK 30/14 Q1011
16:20
V
30 °C 10 km+ - 200° 200° 3 kt METAR EDNY 201420Z 20003KT 130V250 CAVOK 30/15 Q1011
15:50
V
29 °C 10 km+ - 170° 170° 4 kt METAR EDNY 201350Z 17004KT 130V220 CAVOK 29/17 Q1011
15:20
V
29 °C 10 km+ - Var Var 3 kt METAR EDNY 201320Z VRB03KT CAVOK 29/17 Q1011
14:50
V
30 °C 10 km+ - Var Var 3 kt METAR EDNY 201250Z VRB03KT CAVOK 30/18 Q1012
14:20
V
28 °C 10 km+ - Var Var 3 kt METAR EDNY 201220Z VRB03KT CAVOK 28/17 Q1012
13:50
V
28 °C 10 km+ - Var Var 3 kt METAR EDNY 201150Z VRB03KT CAVOK 28/17 Q1012
13:20
V
28 °C 10 km+ - Var Var 3 kt METAR EDNY 201120Z VRB03KT CAVOK 28/17 Q1013
12:50
V
27 °C 10 km+ - 190° 190° 6 kt METAR EDNY 201050Z 19006KT 160V250 CAVOK 27/18 Q1013
12:20
V
26 °C 10 km+ - 200° 200° 5 kt METAR EDNY 201020Z 20005KT 160V270 CAVOK 26/18 Q1013
11:50
V
26 °C 10 km+ - 220° 220° 5 kt METAR EDNY 200950Z 22005KT 170V270 CAVOK 26/18 Q1014
11:20
V
26 °C 10 km+ - 220° 220° 4 kt METAR EDNY 200920Z 22004KT 180V280 CAVOK 26/17 Q1014
10:50
V
25 °C 10 km+ - Var Var 3 kt METAR EDNY 200850Z VRB03KT CAVOK 25/17 Q1014
10:20
V
24 °C 10 km+ - Var Var 2 kt METAR EDNY 200820Z VRB02KT CAVOK 24/19 Q1014
09:50
V
23 °C 10 km+ - 100° 100° 3 kt METAR EDNY 200750Z 10003KT 020V150 CAVOK 23/19 Q1014
09:20
V
23 °C 10 km+ - Var Var 2 kt METAR EDNY 200720Z VRB02KT CAVOK 23/18 Q1014
08:50
V
22 °C 10 km+ - Var Var 2 kt METAR EDNY 200650Z VRB02KT 9999 // NSC 22/18 Q1014
08:20
V
21 °C 10 km+ - 140° 140° 3 kt METAR EDNY 200620Z AUTO 14003KT 100V170 9999 // NCD 21/17 Q1014
07:50
V
19 °C 10 km+ - Var Var 2 kt METAR EDNY 200550Z AUTO VRB02KT 9999 // NCD 19/19 Q1014
07:20
V
18 °C 10 km+ - Var Var 1 kt METAR EDNY 200520Z AUTO VRB01KT 9999 // NCD 18/18 Q1014
06:50
V
16 °C 10 km+ - Var Var 2 kt METAR EDNY 200450Z AUTO VRB02KT 9999 // FEW160/// 16/16 Q1015
06:20
V
16 °C 10 km+ 16.000 ft 030° 030° 1 kt METAR EDNY 200420Z AUTO 03001KT 9999 // FEW140/// BKN160/// 16/16 Q1015
05:50
V
16 °C 10 km+ 16.000 ft Var Var 1 kt METAR EDNY 200350Z AUTO VRB01KT 9999 // BKN160/// 16/16 Q1015
05:20
V
16 °C 10 km+ 16.000 ft Var Var 1 kt METAR EDNY 200320Z AUTO VRB01KT 9999 // FEW140/// BKN160/// 16/16 Q1015
04:50
V
16 °C 10 km+ 14.000 ft Var Var 2 kt METAR EDNY 200250Z AUTO VRB02KT 9999 // BKN140/// BKN160/// 16/16 Q1015
04:20
V
16 °C 10 km+ 16.000 ft 060° 060° 2 kt METAR EDNY 200220Z AUTO 06002KT 9999 // BKN160/// 16/16 Q1015
03:50
V
16 °C 10 km+ 16.000 ft 360° 360° 0 kt METAR EDNY 200150Z AUTO 00000KT 9999 // BKN160/// 16/16 Q1015
03:20
V
17 °C 10 km+ - 300° 300° 2 kt METAR EDNY 200120Z AUTO 30002KT 9999 // SCT150/// 17/17 Q1015
02:50
V
17 °C 10 km+ - 070° 070° 2 kt METAR EDNY 200050Z AUTO 07002KT 9999 // FEW150/// 17/17 Q1016
02:20
V
18 °C 10 km+ - 070° 070° 3 kt METAR EDNY 200020Z AUTO 07003KT 030V100 9999 // SCT150/// 18/18 Q1016
01:50
V
18 °C 10 km+ - Var Var 1 kt METAR EDNY 192350Z AUTO VRB01KT 9999 // FEW150/// SCT230/// 18/18 Q1016
01:20
V
18 °C 10 km+ 24.000 ft Var Var 1 kt METAR EDNY 192320Z AUTO VRB01KT 9999 // BKN240/// 18/18 Q1016
00:50
V
19 °C 10 km+ 24.000 ft 360° 360° 0 kt METAR EDNY 192250Z AUTO 00000KT 9999 // BKN240/// 19/19 Q1016
00:20
V
20 °C 10 km+ 25.000 ft Var Var 1 kt METAR EDNY 192220Z AUTO VRB01KT 9999 // SCT200/// BKN250/// 20/18 Q1017

19 de julio de 2024

Hora Código Tiempo Temp. Visibilidad Cielo nuboso Viento METAR/SPECI
23:50
V
21 °C 10 km+ 20.000 ft 010° 010° 3 kt METAR EDNY 192150Z AUTO 01003KT 330V050 9999 // BKN200/// BKN230/// 21/18 Q1017
23:20
V
21 °C 10 km+ 20.000 ft 010° 010° 3 kt METAR EDNY 192120Z AUTO 01003KT 330V050 9999 // BKN200/// BKN230/// 21/18 Q1017
22:50
V
21 °C 10 km+ 21.000 ft 050° 050° 3 kt METAR EDNY 192050Z AUTO 05003KT 9999 // FEW180/// OVC210/// 21/19 Q1017
22:20
V
22 °C 10 km+ 20.000 ft 040° 040° 3 kt METAR EDNY 192020Z AUTO 04003KT 9999 // FEW088/// BKN200/// 22/18 Q1017
21:50
M
23 °C 7 km - 010° 010° 4 kt METAR EDNY 191950Z 01004KT 320V060 7000 NSC 23/18 Q1017
21:20
V
24 °C 10 km+ - 090° 090° 3 kt METAR EDNY 191920Z 09003KT 020V140 CAVOK 24/19 Q1017
20:50
V
25 °C 10 km+ - 120° 120° 5 kt METAR EDNY 191850Z 12005KT CAVOK 25/18 Q1017
20:20
V
25 °C 10 km+ - 120° 120° 4 kt METAR EDNY 191820Z 12004KT 090V150 CAVOK 25/18 Q1016
19:50
V
26 °C 10 km+ - 120° 120° 4 kt METAR EDNY 191750Z 12004KT 080V160 CAVOK 26/19 Q1016
19:20
V
27 °C 10 km+ - 150° 150° 4 kt METAR EDNY 191720Z 15004KT CAVOK 27/18 Q1016
18:50
V
27 °C 10 km+ - 180° 180° 3 kt METAR EDNY 191650Z 18003KT 140V210 CAVOK 27/18 Q1017
18:20
V
27 °C 10 km+ - 180° 180° 5 kt METAR EDNY 191620Z 18005KT 150V210 CAVOK 27/19 Q1017
17:50
V
27 °C 10 km+ - 170° 170° 5 kt METAR EDNY 191550Z 17005KT CAVOK 27/19 Q1017
17:20
V
28 °C 10 km+ - 200° 200° 6 kt METAR EDNY 191520Z 20006KT 170V230 CAVOK 28/19 Q1017
16:50
V
29 °C 10 km+ - 190° 190° 7 kt METAR EDNY 191450Z 19007KT CAVOK 29/17 Q1017
16:20
V
29 °C 10 km+ - 140° 140° 4 kt METAR EDNY 191420Z 14004KT 090V230 9999 FEW045 29/18 Q1017
15:50
V
28 °C 10 km+ - 180° 180° 6 kt METAR EDNY 191350Z 18006KT 140V210 9999 FEW045 28/18 Q1018
15:20
V
29 °C 10 km+ - 180° 180° 5 kt METAR EDNY 191320Z 18005KT 130V230 9999 FEW045 29/17 Q1018
14:50
V
29 °C 10 km+ - 200° 200° 5 kt METAR EDNY 191250Z 20005KT 170V230 9999 FEW045 29/17 Q1018
14:20
V
29 °C 10 km+ - 260° 260° 3 kt METAR EDNY 191220Z 26003KT 160V320 9999 FEW045 29/17 Q1019
13:50
V
29 °C 10 km+ - 070° 070° 3 kt METAR EDNY 191150Z 07003KT 030V120 9999 FEW045 29/18 Q1019
13:20
V
28 °C 10 km+ - Var Var 3 kt METAR EDNY 191120Z VRB03KT CAVOK 28/18 Q1019
12:50
V
26 °C 10 km+ - 220° 220° 6 kt METAR EDNY 191050Z 22006KT CAVOK 26/21 Q1019
12:20
V
26 °C 10 km+ - 230° 230° 5 kt METAR EDNY 191020Z 23005KT 190V300 CAVOK 26/20 Q1019
11:50
V
26 °C 10 km+ - 210° 210° 4 kt METAR EDNY 190950Z 21004KT 130V260 CAVOK 26/20 Q1020
11:20
V
26 °C 10 km+ - Var Var 3 kt METAR EDNY 190920Z VRB03KT CAVOK 26/21 Q1020
10:50
V
24 °C 10 km+ - 250° 250° 3 kt METAR EDNY 190850Z 25003KT 200V310 9999 FEW010 24/19 Q1020
10:20
V
24 °C 10 km+ - Var Var 2 kt METAR EDNY 190820Z VRB02KT 9999 FEW008 24/20 Q1020
09:50
V
23 °C 10 km+ - Var Var 2 kt METAR EDNY 190750Z VRB02KT CAVOK 23/20 Q1020
09:20
V
22 °C 10 km+ - Var Var 1 kt METAR EDNY 190720Z VRB01KT 9999 FEW005 22/20 Q1020
08:50
V
22 °C 10 km+ - 060° 060° 3 kt METAR EDNY 190650Z 06003KT 010V140 9999 FEW008 22/20 Q1020
08:20
V
20 °C 10 km+ - 030° 030° 3 kt METAR EDNY 190620Z 03003KT 010V080 9999 SCT009 20/18 Q1021
07:50
V
19 °C 10 km+ - 050° 050° 3 kt METAR EDNY 190550Z 05003KT 020V080 CAVOK 19/18 Q1021
07:20
V
18 °C 10 km+ - 050° 050° 3 kt METAR EDNY 190520Z 05003KT CAVOK 18/18 Q1021
06:50
V
17 °C 10 km+ - 060° 060° 4 kt METAR EDNY 190450Z 06004KT CAVOK 17/17 Q1021
06:20
V
17 °C 10 km+ - 060° 060° 5 kt METAR EDNY 190420Z 06005KT CAVOK 17/17 Q1021
05:50
V
17 °C 10 km+ - 050° 050° 3 kt METAR EDNY 190350Z 05003KT CAVOK 17/17 Q1020
05:20
V
17 °C 10 km+ - 050° 050° 4 kt METAR EDNY 190320Z AUTO 05004KT 9999 // NCD 17/17 Q1020
04:50
V
17 °C 10 km+ - 060° 060° 4 kt METAR EDNY 190250Z AUTO 06004KT 9999 // NCD 17/17 Q1020
04:20
V
18 °C 10 km+ - 050° 050° 4 kt METAR EDNY 190220Z AUTO 05004KT 9999 // NCD 18/18 Q1020
03:50
V
18 °C 10 km+ - 030° 030° 4 kt METAR EDNY 190150Z AUTO 03004KT 360V060 9999 // NCD 18/18 Q1020
03:20
V
17 °C 10 km+ - 050° 050° 3 kt METAR EDNY 190120Z AUTO 05003KT 9999 // NCD 17/16 Q1020
02:50
V
18 °C 10 km+ - 040° 040° 3 kt METAR EDNY 190050Z AUTO 04003KT 010V070 9999 // NCD 18/18 Q1020
02:20
V
17 °C 10 km+ - 060° 060° 3 kt METAR EDNY 190020Z AUTO 06003KT 9999 // NCD 17/17 Q1021
01:50
V
18 °C 10 km+ - Var Var 2 kt METAR EDNY 182350Z AUTO VRB02KT 9999 // NCD 18/18 Q1021
01:20
V
18 °C 10 km+ - 060° 060° 3 kt METAR EDNY 182320Z AUTO 06003KT 9999 // NCD 18/18 Q1021
00:50
V
19 °C 10 km+ - 070° 070° 3 kt METAR EDNY 182250Z AUTO 07003KT 010V090 9999 // NCD 19/19 Q1021
00:20
V
19 °C 10 km+ - 060° 060° 3 kt METAR EDNY 182220Z AUTO 06003KT 030V090 9999 // NCD 19/19 Q1021

18 de julio de 2024

Hora Código Tiempo Temp. Visibilidad Cielo nuboso Viento METAR/SPECI
23:50
V
18 °C 10 km+ - Var Var 2 kt METAR EDNY 182150Z AUTO VRB02KT 9999 // NCD 18/18 Q1021
23:20
V
19 °C 10 km+ - 050° 050° 2 kt METAR EDNY 182120Z AUTO 05002KT 9999 // NCD 19/19 Q1021
22:50
V
19 °C 10 km+ - Var Var 2 kt METAR EDNY 182050Z AUTO VRB02KT 9999 // NCD 19/19 Q1021
22:20
V
20 °C 10 km+ - Var Var 1 kt METAR EDNY 182020Z AUTO VRB01KT 9999 // NCD 20/19 Q1021
21:50
V
21 °C 10 km+ - 050° 050° 3 kt METAR EDNY 181950Z AUTO 05003KT 9999 // NCD 21/20 Q1021
21:20
V
21 °C 10 km+ - Var Var 2 kt METAR EDNY 181920Z VRB02KT CAVOK 21/20 Q1020
20:50
V
24 °C 10 km+ - 310° 310° 3 kt METAR EDNY 181850Z 31003KT CAVOK 24/19 Q1020
20:20
V
27 °C 10 km+ - Var Var 1 kt METAR EDNY 181820Z VRB01KT CAVOK 27/19 Q1020
19:50
V
27 °C 10 km+ - 260° 260° 3 kt METAR EDNY 181750Z 26003KT CAVOK 27/18 Q1020
19:20
V
27 °C 10 km+ - 240° 240° 4 kt METAR EDNY 181720Z 24004KT 200V270 CAVOK 27/18 Q1020
18:50
V
27 °C 10 km+ - 190° 190° 5 kt METAR EDNY 181650Z 19005KT 9999 FEW043 27/18 Q1020
18:20
V
27 °C 10 km+ - 200° 200° 6 kt METAR EDNY 181620Z 20006KT CAVOK 27/18 Q1020
17:50
V
28 °C 10 km+ - 220° 220° 5 kt METAR EDNY 181550Z 22005KT 160V290 9999 FEW048 28/18 Q1020
17:20
V
28 °C 10 km+ - Var Var 4 kt METAR EDNY 181520Z VRB04KT 9999 FEW048 28/18 Q1020
16:50
V
28 °C 10 km+ - 220° 220° 7 kt METAR EDNY 181450Z 22007KT 9999 FEW047 28/19 Q1021
16:20
V
27 °C 10 km+ - 210° 210° 7 kt METAR EDNY 181420Z 21007KT 9999 FEW046 27/18 Q1021
15:50
V
27 °C 10 km+ - 200° 200° 5 kt METAR EDNY 181350Z 20005KT 140V240 9999 FEW028 27/19 Q1021
15:20
V
27 °C 10 km+ - 220° 220° 6 kt METAR EDNY 181320Z 22006KT 170V250 9999 FEW028 27/18 Q1021
14:50
V
26 °C 10 km+ - 210° 210° 7 kt METAR EDNY 181250Z 21007KT 170V240 9999 FEW028 26/19 Q1021
14:20
V
26 °C 10 km+ - 200° 200° 6 kt METAR EDNY 181220Z 20006KT 170V240 9999 FEW038 26/19 Q1021
13:50
V
24 °C 10 km+ - 210° 210° 7 kt METAR EDNY 181150Z 21007KT 9999 FEW037 24/19 Q1021
13:20
V
24 °C 10 km+ - 220° 220° 7 kt METAR EDNY 181120Z 22007KT 9999 FEW037 24/18 Q1021
12:50
V
25 °C 10 km+ - 210° 210° 7 kt METAR EDNY 181050Z 21007KT 170V260 9999 FEW034 25/18 Q1021
12:20
V
24 °C 10 km+ - 230° 230° 5 kt METAR EDNY 181020Z 23005KT 170V280 9999 FEW033 24/18 Q1021
11:50
V
23 °C 10 km+ - 220° 220° 5 kt METAR EDNY 180950Z 22005KT 180V300 CAVOK 23/17 Q1021
11:20
V
24 °C 10 km+ - 200° 200° 6 kt METAR EDNY 180920Z 20006KT CAVOK 24/16 Q1022
10:50
V
23 °C 10 km+ - Var Var 4 kt METAR EDNY 180850Z VRB04KT CAVOK 23/16 Q1021
10:20
V
22 °C 10 km+ - Var Var 3 kt METAR EDNY 180820Z VRB03KT CAVOK 22/16 Q1022
09:50
V
21 °C 10 km+ - 040° 040° 4 kt METAR EDNY 180750Z 04004KT 010V090 CAVOK 21/16 Q1021
09:20
V
21 °C 10 km+ - 030° 030° 6 kt METAR EDNY 180720Z 03006KT 010V070 CAVOK 21/16 Q1021
08:50
V
19 °C 10 km+ - 050° 050° 6 kt METAR EDNY 180650Z 05006KT 030V090 CAVOK 19/15 Q1021
08:20
V
19 °C 10 km+ - 050° 050° 7 kt METAR EDNY 180620Z 05007KT CAVOK 19/15 Q1021
07:50
V
18 °C 10 km+ - 050° 050° 5 kt METAR EDNY 180550Z 05005KT CAVOK 18/16 Q1021
Cambiar esta información